sensor_id;sensor_type;location;lat;lon;timestamp;P1;durP1;ratioP1;P2;durP2;ratioP2
36443;SDS011;24692;45.642;13.806;2022-08-19T00:00:00;12.07;;;4.00;;
36443;SDS011;24692;45.642;13.806;2022-08-19T00:02:26;10.38;;;3.72;;
36443;SDS011;24692;45.642;13.806;2022-08-19T00:04:52;9.13;;;3.90;;
36443;SDS011;24692;45.642;13.806;2022-08-19T00:07:19;11.15;;;4.60;;
36443;SDS011;24692;45.642;13.806;2022-08-19T00:09:45;12.05;;;4.38;;
36443;SDS011;24692;45.642;13.806;2022-08-19T00:12:10;12.80;;;4.50;;
36443;SDS011;24692;45.642;13.806;2022-08-19T00:14:37;10.75;;;4.38;;
36443;SDS011;24692;45.642;13.806;2022-08-19T00:17:03;9.80;;;4.32;;
36443;SDS011;24692;45.642;13.806;2022-08-19T00:19:30;10.50;;;4.03;;
36443;SDS011;24692;45.642;13.806;2022-08-19T00:21:56;8.43;;;3.75;;
36443;SDS011;24692;45.642;13.806;2022-08-19T00:24:22;9.73;;;3.97;;
36443;SDS011;24692;45.642;13.806;2022-08-19T00:26:48;12.25;;;3.80;;
36443;SDS011;24692;45.642;13.806;2022-08-19T00:29:15;10.65;;;3.60;;
36443;SDS011;24692;45.642;13.806;2022-08-19T00:31:42;10.05;;;4.15;;
36443;SDS011;24692;45.642;13.806;2022-08-19T00:34:09;10.17;;;3.40;;
36443;SDS011;24692;45.642;13.806;2022-08-19T00:36:36;10.25;;;3.83;;
36443;SDS011;24692;45.642;13.806;2022-08-19T00:39:03;6.65;;;3.33;;
36443;SDS011;24692;45.642;13.806;2022-08-19T00:41:29;8.83;;;3.53;;
36443;SDS011;24692;45.642;13.806;2022-08-19T00:44:02;9.80;;;3.72;;
36443;SDS011;24692;45.642;13.806;2022-08-19T00:46:31;16.20;;;3.85;;
36443;SDS011;24692;45.642;13.806;2022-08-19T00:48:59;12.70;;;3.70;;
36443;SDS011;24692;45.642;13.806;2022-08-19T00:51:27;8.23;;;2.97;;
36443;SDS011;24692;45.642;13.806;2022-08-19T00:53:55;9.57;;;3.30;;
36443;SDS011;24692;45.642;13.806;2022-08-19T00:56:23;6.95;;;3.17;;
36443;SDS011;24692;45.642;13.806;2022-08-19T00:58:51;12.00;;;3.22;;
36443;SDS011;24692;45.642;13.806;2022-08-19T01:01:19;8.38;;;3.28;;
36443;SDS011;24692;45.642;13.806;2022-08-19T01:03:45;6.57;;;2.92;;
36443;SDS011;24692;45.642;13.806;2022-08-19T01:06:11;9.05;;;3.30;;
36443;SDS011;24692;45.642;13.806;2022-08-19T01:08:36;6.77;;;3.47;;
36443;SDS011;24692;45.642;13.806;2022-08-19T01:11:02;11.32;;;3.80;;
36443;SDS011;24692;45.642;13.806;2022-08-19T01:13:30;8.88;;;4.45;;
36443;SDS011;24692;45.642;13.806;2022-08-19T01:16:00;11.63;;;4.45;;
36443;SDS011;24692;45.642;13.806;2022-08-19T01:18:32;17.05;;;5.55;;
36443;SDS011;24692;45.642;13.806;2022-08-19T01:21:05;13.70;;;5.28;;
36443;SDS011;24692;45.642;13.806;2022-08-19T01:23:35;19.27;;;4.97;;
36443;SDS011;24692;45.642;13.806;2022-08-19T01:26:08;19.00;;;5.77;;
36443;SDS011;24692;45.642;13.806;2022-08-19T01:28:36;16.08;;;6.28;;
36443;SDS011;24692;45.642;13.806;2022-08-19T01:31:03;27.35;;;8.70;;
36443;SDS011;24692;45.642;13.806;2022-08-19T01:33:29;18.60;;;7.23;;
36443;SDS011;24692;45.642;13.806;2022-08-19T01:36:22;21.80;;;8.53;;
36443;SDS011;24692;45.642;13.806;2022-08-19T01:39:04;25.63;;;10.32;;
36443;SDS011;24692;45.642;13.806;2022-08-19T01:41:34;17.73;;;8.47;;
36443;SDS011;24692;45.642;13.806;2022-08-19T01:44:00;26.10;;;10.27;;
36443;SDS011;24692;45.642;13.806;2022-08-19T01:46:28;20.87;;;9.97;;
36443;SDS011;24692;45.642;13.806;2022-08-19T01:48:55;19.00;;;9.53;;
36443;SDS011;24692;45.642;13.806;2022-08-19T01:51:21;15.57;;;7.40;;
36443;SDS011;24692;45.642;13.806;2022-08-19T01:53:47;15.43;;;7.63;;
36443;SDS011;24692;45.642;13.806;2022-08-19T01:56:14;15.90;;;7.73;;
36443;SDS011;24692;45.642;13.806;2022-08-19T01:58:41;14.73;;;7.50;;
36443;SDS011;24692;45.642;13.806;2022-08-19T02:01:14;14.93;;;8.37;;
36443;SDS011;24692;45.642;13.806;2022-08-19T02:03:40;18.77;;;7.50;;
36443;SDS011;24692;45.642;13.806;2022-08-19T02:06:05;14.70;;;6.80;;
36443;SDS011;24692;45.642;13.806;2022-08-19T02:08:32;9.48;;;5.50;;
36443;SDS011;24692;45.642;13.806;2022-08-19T02:10:59;11.80;;;4.70;;
36443;SDS011;24692;45.642;13.806;2022-08-19T02:13:26;10.83;;;5.23;;
36443;SDS011;24692;45.642;13.806;2022-08-19T02:15:52;10.53;;;5.60;;
36443;SDS011;24692;45.642;13.806;2022-08-19T02:18:17;10.53;;;5.53;;
36443;SDS011;24692;45.642;13.806;2022-08-19T02:20:43;16.23;;;7.60;;
36443;SDS011;24692;45.642;13.806;2022-08-19T02:23:10;19.33;;;7.67;;
36443;SDS011;24692;45.642;13.806;2022-08-19T02:25:37;17.17;;;7.90;;
36443;SDS011;24692;45.642;13.806;2022-08-19T02:28:03;14.03;;;6.40;;
36443;SDS011;24692;45.642;13.806;2022-08-19T02:30:29;12.73;;;5.10;;
36443;SDS011;24692;45.642;13.806;2022-08-19T02:32:55;9.10;;;4.53;;
36443;SDS011;24692;45.642;13.806;2022-08-19T02:35:21;10.40;;;4.83;;
36443;SDS011;24692;45.642;13.806;2022-08-19T02:37:47;9.80;;;4.83;;
36443;SDS011;24692;45.642;13.806;2022-08-19T02:40:31;14.93;;;4.60;;
36443;SDS011;24692;45.642;13.806;2022-08-19T02:43:00;8.47;;;4.10;;
36443;SDS011;24692;45.642;13.806;2022-08-19T02:45:31;9.17;;;4.13;;
36443;SDS011;24692;45.642;13.806;2022-08-19T02:47:58;9.93;;;4.00;;
36443;SDS011;24692;45.642;13.806;2022-08-19T02:50:23;9.70;;;4.13;;
36443;SDS011;24692;45.642;13.806;2022-08-19T02:52:49;9.47;;;3.67;;
36443;SDS011;24692;45.642;13.806;2022-08-19T02:55:15;9.20;;;3.67;;
36443;SDS011;24692;45.642;13.806;2022-08-19T02:57:41;11.17;;;4.40;;
36443;SDS011;24692;45.642;13.806;2022-08-19T03:00:07;12.07;;;4.40;;
36443;SDS011;24692;45.642;13.806;2022-08-19T03:02:34;10.53;;;4.40;;
36443;SDS011;24692;45.642;13.806;2022-08-19T03:04:59;11.07;;;4.73;;
36443;SDS011;24692;45.642;13.806;2022-08-19T03:07:27;11.43;;;4.97;;
36443;SDS011;24692;45.642;13.806;2022-08-19T03:09:53;10.33;;;4.77;;
36443;SDS011;24692;45.642;13.806;2022-08-19T03:12:18;10.80;;;4.40;;
36443;SDS011;24692;45.642;13.806;2022-08-19T03:14:44;13.73;;;4.20;;
36443;SDS011;24692;45.642;13.806;2022-08-19T03:17:11;8.57;;;3.77;;
36443;SDS011;24692;45.642;13.806;2022-08-19T03:19:37;10.10;;;4.13;;
36443;SDS011;24692;45.642;13.806;2022-08-19T03:22:03;9.77;;;4.00;;
36443;SDS011;24692;45.642;13.806;2022-08-19T03:24:29;8.90;;;3.70;;
36443;SDS011;24692;45.642;13.806;2022-08-19T03:26:56;9.87;;;3.40;;
36443;SDS011;24692;45.642;13.806;2022-08-19T03:29:23;9.40;;;3.77;;
36443;SDS011;24692;45.642;13.806;2022-08-19T03:31:49;10.73;;;3.50;;
36443;SDS011;24692;45.642;13.806;2022-08-19T03:34:21;9.87;;;3.70;;
36443;SDS011;24692;45.642;13.806;2022-08-19T03:36:52;10.70;;;3.73;;
36443;SDS011;24692;45.642;13.806;2022-08-19T03:39:20;10.67;;;3.60;;
36443;SDS011;24692;45.642;13.806;2022-08-19T03:41:46;8.27;;;3.20;;
36443;SDS011;24692;45.642;13.806;2022-08-19T03:44:15;8.80;;;3.90;;
36443;SDS011;24692;45.642;13.806;2022-08-19T03:46:42;9.50;;;3.67;;
36443;SDS011;24692;45.642;13.806;2022-08-19T03:49:08;6.60;;;3.53;;
36443;SDS011;24692;45.642;13.806;2022-08-19T03:51:36;10.57;;;3.33;;
36443;SDS011;24692;45.642;13.806;2022-08-19T03:54:04;10.47;;;3.03;;
36443;SDS011;24692;45.642;13.806;2022-08-19T03:56:33;8.03;;;3.23;;
36443;SDS011;24692;45.642;13.806;2022-08-19T03:59:00;11.23;;;3.57;;
36443;SDS011;24692;45.642;13.806;2022-08-19T04:01:27;10.17;;;3.60;;
36443;SDS011;24692;45.642;13.806;2022-08-19T04:03:54;10.60;;;3.63;;
36443;SDS011;24692;45.642;13.806;2022-08-19T04:06:22;12.43;;;4.70;;
36443;SDS011;24692;45.642;13.806;2022-08-19T04:08:51;18.87;;;5.50;;
36443;SDS011;24692;45.642;13.806;2022-08-19T04:11:20;15.40;;;4.57;;
36443;SDS011;24692;45.642;13.806;2022-08-19T04:13:52;10.20;;;4.10;;
36443;SDS011;24692;45.642;13.806;2022-08-19T04:16:19;14.83;;;3.87;;
36443;SDS011;24692;45.642;13.806;2022-08-19T04:18:47;11.63;;;4.13;;
36443;SDS011;24692;45.642;13.806;2022-08-19T04:21:17;9.13;;;4.07;;
36443;SDS011;24692;45.642;13.806;2022-08-19T04:23:46;9.40;;;5.10;;
36443;SDS011;24692;45.642;13.806;2022-08-19T04:26:13;13.37;;;4.83;;
36443;SDS011;24692;45.642;13.806;2022-08-19T04:28:40;12.10;;;4.33;;
36443;SDS011;24692;45.642;13.806;2022-08-19T04:31:11;8.87;;;4.00;;
36443;SDS011;24692;45.642;13.806;2022-08-19T04:33:42;8.53;;;3.63;;
36443;SDS011;24692;45.642;13.806;2022-08-19T04:36:10;10.77;;;3.50;;
36443;SDS011;24692;45.642;13.806;2022-08-19T04:38:53;8.73;;;2.97;;
36443;SDS011;24692;45.642;13.806;2022-08-19T04:41:20;6.33;;;2.67;;
36443;SDS011;24692;45.642;13.806;2022-08-19T04:44:04;5.77;;;2.20;;
36443;SDS011;24692;45.642;13.806;2022-08-19T04:46:30;4.77;;;2.07;;
36443;SDS011;24692;45.642;13.806;2022-08-19T04:48:57;4.57;;;1.80;;
36443;SDS011;24692;45.642;13.806;2022-08-19T04:51:23;2.50;;;1.43;;
36443;SDS011;24692;45.642;13.806;2022-08-19T04:53:49;4.70;;;1.60;;
36443;SDS011;24692;45.642;13.806;2022-08-19T04:56:16;3.37;;;1.87;;
36443;SDS011;24692;45.642;13.806;2022-08-19T04:58:44;4.17;;;1.67;;
36443;SDS011;24692;45.642;13.806;2022-08-19T05:01:15;6.33;;;2.43;;
36443;SDS011;24692;45.642;13.806;2022-08-19T05:03:44;3.93;;;1.90;;
36443;SDS011;24692;45.642;13.806;2022-08-19T05:06:11;5.23;;;1.70;;
36443;SDS011;24692;45.642;13.806;2022-08-19T05:08:39;5.50;;;1.80;;
36443;SDS011;24692;45.642;13.806;2022-08-19T05:11:12;2.63;;;1.20;;
36443;SDS011;24692;45.642;13.806;2022-08-19T05:13:41;5.03;;;1.87;;
36443;SDS011;24692;45.642;13.806;2022-08-19T05:16:08;2.70;;;1.40;;
36443;SDS011;24692;45.642;13.806;2022-08-19T05:18:35;2.00;;;1.50;;
36443;SDS011;24692;45.642;13.806;2022-08-19T05:21:20;5.93;;;1.70;;
36443;SDS011;24692;45.642;13.806;2022-08-19T05:24:09;2.40;;;1.33;;
36443;SDS011;24692;45.642;13.806;2022-08-19T05:26:36;4.10;;;1.60;;
36443;SDS011;24692;45.642;13.806;2022-08-19T05:29:02;3.33;;;1.33;;
36443;SDS011;24692;45.642;13.806;2022-08-19T05:31:28;2.63;;;1.20;;
36443;SDS011;24692;45.642;13.806;2022-08-19T05:33:54;4.00;;;1.90;;
36443;SDS011;24692;45.642;13.806;2022-08-19T05:36:23;2.83;;;1.33;;
36443;SDS011;24692;45.642;13.806;2022-08-19T05:38:50;4.00;;;1.17;;
36443;SDS011;24692;45.642;13.806;2022-08-19T05:41:17;9.57;;;1.13;;
36443;SDS011;24692;45.642;13.806;2022-08-19T05:43:44;1.90;;;1.17;;
36443;SDS011;24692;45.642;13.806;2022-08-19T05:46:13;2.63;;;1.40;;
36443;SDS011;24692;45.642;13.806;2022-08-19T05:48:45;3.70;;;1.10;;
36443;SDS011;24692;45.642;13.806;2022-08-19T05:51:11;4.10;;;1.17;;
36443;SDS011;24692;45.642;13.806;2022-08-19T05:53:37;3.80;;;1.30;;
36443;SDS011;24692;45.642;13.806;2022-08-19T05:56:03;3.97;;;1.43;;
36443;SDS011;24692;45.642;13.806;2022-08-19T05:58:33;3.30;;;1.37;;
36443;SDS011;24692;45.642;13.806;2022-08-19T06:01:00;2.90;;;1.13;;
36443;SDS011;24692;45.642;13.806;2022-08-19T06:03:33;3.83;;;1.20;;
36443;SDS011;24692;45.642;13.806;2022-08-19T06:06:01;2.97;;;0.90;;
36443;SDS011;24692;45.642;13.806;2022-08-19T06:08:27;3.13;;;1.23;;
36443;SDS011;24692;45.642;13.806;2022-08-19T06:10:53;5.13;;;1.30;;
36443;SDS011;24692;45.642;13.806;2022-08-19T06:13:20;2.83;;;1.17;;
36443;SDS011;24692;45.642;13.806;2022-08-19T06:15:48;3.27;;;1.30;;
36443;SDS011;24692;45.642;13.806;2022-08-19T06:18:14;2.50;;;1.03;;
36443;SDS011;24692;45.642;13.806;2022-08-19T06:20:40;2.93;;;1.53;;
36443;SDS011;24692;45.642;13.806;2022-08-19T06:23:06;3.07;;;1.20;;
36443;SDS011;24692;45.642;13.806;2022-08-19T06:25:33;3.43;;;1.40;;
36443;SDS011;24692;45.642;13.806;2022-08-19T06:28:00;2.53;;;1.27;;
36443;SDS011;24692;45.642;13.806;2022-08-19T06:30:27;5.70;;;1.67;;
36443;SDS011;24692;45.642;13.806;2022-08-19T06:32:52;4.33;;;1.40;;
36443;SDS011;24692;45.642;13.806;2022-08-19T06:35:18;5.70;;;1.63;;
36443;SDS011;24692;45.642;13.806;2022-08-19T06:37:44;2.50;;;1.50;;
36443;SDS011;24692;45.642;13.806;2022-08-19T06:40:10;6.17;;;1.63;;
36443;SDS011;24692;45.642;13.806;2022-08-19T06:42:37;3.97;;;1.60;;
36443;SDS011;24692;45.642;13.806;2022-08-19T06:45:03;3.60;;;1.38;;
36443;SDS011;24692;45.642;13.806;2022-08-19T06:47:30;2.87;;;1.47;;
36443;SDS011;24692;45.642;13.806;2022-08-19T06:49:57;6.80;;;1.93;;
36443;SDS011;24692;45.642;13.806;2022-08-19T06:52:29;5.40;;;1.80;;
36443;SDS011;24692;45.642;13.806;2022-08-19T06:55:00;4.77;;;1.70;;
36443;SDS011;24692;45.642;13.806;2022-08-19T06:57:27;5.22;;;1.75;;
36443;SDS011;24692;45.642;13.806;2022-08-19T06:59:58;5.05;;;1.70;;
36443;SDS011;24692;45.642;13.806;2022-08-19T07:02:25;5.40;;;1.65;;
36443;SDS011;24692;45.642;13.806;2022-08-19T07:04:51;5.32;;;1.60;;
36443;SDS011;24692;45.642;13.806;2022-08-19T07:07:18;5.32;;;1.50;;
36443;SDS011;24692;45.642;13.806;2022-08-19T07:09:47;4.10;;;1.83;;
36443;SDS011;24692;45.642;13.806;2022-08-19T07:12:18;5.07;;;1.65;;
36443;SDS011;24692;45.642;13.806;2022-08-19T07:14:43;2.97;;;1.40;;
36443;SDS011;24692;45.642;13.806;2022-08-19T07:17:10;4.80;;;1.50;;
36443;SDS011;24692;45.642;13.806;2022-08-19T07:19:37;2.92;;;1.38;;
36443;SDS011;24692;45.642;13.806;2022-08-19T07:22:04;3.42;;;1.35;;
36443;SDS011;24692;45.642;13.806;2022-08-19T07:24:32;1.83;;;1.17;;
36443;SDS011;24692;45.642;13.806;2022-08-19T07:26:59;3.00;;;1.20;;
36443;SDS011;24692;45.642;13.806;2022-08-19T07:29:28;3.53;;;1.33;;
36443;SDS011;24692;45.642;13.806;2022-08-19T07:31:55;3.22;;;1.30;;
36443;SDS011;24692;45.642;13.806;2022-08-19T07:34:23;3.53;;;1.23;;
36443;SDS011;24692;45.642;13.806;2022-08-19T07:36:50;5.07;;;1.45;;
36443;SDS011;24692;45.642;13.806;2022-08-19T07:39:17;8.70;;;1.50;;
36443;SDS011;24692;45.642;13.806;2022-08-19T07:41:55;5.30;;;1.45;;
36443;SDS011;24692;45.642;13.806;2022-08-19T07:44:22;5.63;;;1.50;;
36443;SDS011;24692;45.642;13.806;2022-08-19T07:46:50;5.35;;;1.95;;
36443;SDS011;24692;45.642;13.806;2022-08-19T07:49:17;6.38;;;1.90;;
36443;SDS011;24692;45.642;13.806;2022-08-19T07:51:48;6.60;;;1.70;;
36443;SDS011;24692;45.642;13.806;2022-08-19T07:54:20;7.13;;;2.00;;
36443;SDS011;24692;45.642;13.806;2022-08-19T07:56:46;7.75;;;2.05;;
36443;SDS011;24692;45.642;13.806;2022-08-19T07:59:12;7.38;;;2.10;;
36443;SDS011;24692;45.642;13.806;2022-08-19T08:01:38;4.45;;;1.90;;
36443;SDS011;24692;45.642;13.806;2022-08-19T08:04:05;8.95;;;2.08;;
36443;SDS011;24692;45.642;13.806;2022-08-19T08:06:50;8.90;;;2.20;;
36443;SDS011;24692;45.642;13.806;2022-08-19T08:09:37;9.30;;;2.63;;
36443;SDS011;24692;45.642;13.806;2022-08-19T08:12:06;7.00;;;2.63;;
36443;SDS011;24692;45.642;13.806;2022-08-19T08:14:54;12.30;;;2.95;;
36443;SDS011;24692;45.642;13.806;2022-08-19T08:17:22;7.93;;;2.67;;
36443;SDS011;24692;45.642;13.806;2022-08-19T08:19:50;11.55;;;2.70;;
36443;SDS011;24692;45.642;13.806;2022-08-19T08:22:17;9.02;;;2.60;;
36443;SDS011;24692;45.642;13.806;2022-08-19T08:25:11;10.20;;;2.67;;
36443;SDS011;24692;45.642;13.806;2022-08-19T08:27:43;9.93;;;2.42;;
36443;SDS011;24692;45.642;13.806;2022-08-19T08:30:12;8.95;;;2.72;;
36443;SDS011;24692;45.642;13.806;2022-08-19T08:32:41;12.52;;;3.22;;
36443;SDS011;24692;45.642;13.806;2022-08-19T08:35:07;10.55;;;3.20;;
36443;SDS011;24692;45.642;13.806;2022-08-19T08:37:35;7.00;;;2.63;;
36443;SDS011;24692;45.642;13.806;2022-08-19T08:40:45;12.07;;;2.42;;
36443;SDS011;24692;45.642;13.806;2022-08-19T08:48:59;11.40;;;2.70;;
36443;SDS011;24692;45.642;13.806;2022-08-19T08:51:50;10.50;;;2.63;;
36443;SDS011;24692;45.642;13.806;2022-08-19T08:54:20;10.45;;;2.85;;
36443;SDS011;24692;45.642;13.806;2022-08-19T08:56:49;9.75;;;2.90;;
36443;SDS011;24692;45.642;13.806;2022-08-19T09:01:53;12.10;;;3.10;;
36443;SDS011;24692;45.642;13.806;2022-08-19T09:04:18;10.02;;;2.80;;
36443;SDS011;24692;45.642;13.806;2022-08-19T09:09:49;12.90;;;3.17;;
36443;SDS011;24692;45.642;13.806;2022-08-19T09:15:10;13.77;;;3.83;;
36443;SDS011;24692;45.642;13.806;2022-08-19T09:17:38;12.95;;;3.40;;
36443;SDS011;24692;45.642;13.806;2022-08-19T09:20:25;14.02;;;3.53;;
36443;SDS011;24692;45.642;13.806;2022-08-19T09:22:50;16.58;;;4.15;;
36443;SDS011;24692;45.642;13.806;2022-08-19T09:25:17;18.98;;;4.10;;
36443;SDS011;24692;45.642;13.806;2022-08-19T09:27:48;19.98;;;4.43;;
36443;SDS011;24692;45.642;13.806;2022-08-19T09:30:16;15.77;;;3.92;;
36443;SDS011;24692;45.642;13.806;2022-08-19T09:32:46;18.20;;;4.60;;
36443;SDS011;24692;45.642;13.806;2022-08-19T09:35:12;22.27;;;4.60;;
36443;SDS011;24692;45.642;13.806;2022-08-19T09:37:39;20.73;;;4.82;;
36443;SDS011;24692;45.642;13.806;2022-08-19T09:40:05;18.00;;;4.32;;
36443;SDS011;24692;45.642;13.806;2022-08-19T09:42:31;26.17;;;5.28;;
36443;SDS011;24692;45.642;13.806;2022-08-19T09:44:58;19.00;;;4.53;;
36443;SDS011;24692;45.642;13.806;2022-08-19T09:47:24;22.75;;;5.13;;
36443;SDS011;24692;45.642;13.806;2022-08-19T09:49:50;19.95;;;4.57;;
36443;SDS011;24692;45.642;13.806;2022-08-19T09:52:16;23.25;;;4.90;;
36443;SDS011;24692;45.642;13.806;2022-08-19T09:54:43;21.85;;;4.72;;
36443;SDS011;24692;45.642;13.806;2022-08-19T09:57:09;24.90;;;5.40;;
36443;SDS011;24692;45.642;13.806;2022-08-19T09:59:34;25.08;;;5.38;;
36443;SDS011;24692;45.642;13.806;2022-08-19T10:02:00;22.45;;;4.90;;
36443;SDS011;24692;45.642;13.806;2022-08-19T10:04:26;20.50;;;4.90;;
36443;SDS011;24692;45.642;13.806;2022-08-19T10:07:11;26.67;;;5.47;;
36443;SDS011;24692;45.642;13.806;2022-08-19T10:09:38;24.58;;;4.50;;
36443;SDS011;24692;45.642;13.806;2022-08-19T10:12:05;25.27;;;5.45;;
36443;SDS011;24692;45.642;13.806;2022-08-19T10:14:32;25.70;;;5.32;;
36443;SDS011;24692;45.642;13.806;2022-08-19T10:16:58;25.98;;;5.07;;
36443;SDS011;24692;45.642;13.806;2022-08-19T10:19:25;30.92;;;5.60;;
36443;SDS011;24692;45.642;13.806;2022-08-19T10:21:53;22.70;;;5.35;;
36443;SDS011;24692;45.642;13.806;2022-08-19T10:24:19;21.27;;;5.25;;
36443;SDS011;24692;45.642;13.806;2022-08-19T10:26:45;26.67;;;4.95;;
36443;SDS011;24692;45.642;13.806;2022-08-19T10:29:13;29.48;;;5.55;;
36443;SDS011;24692;45.642;13.806;2022-08-19T10:31:41;22.35;;;5.63;;
36443;SDS011;24692;45.642;13.806;2022-08-19T10:34:06;25.48;;;5.45;;
36443;SDS011;24692;45.642;13.806;2022-08-19T10:36:33;25.25;;;6.22;;
36443;SDS011;24692;45.642;13.806;2022-08-19T10:39:03;25.60;;;6.15;;
36443;SDS011;24692;45.642;13.806;2022-08-19T10:41:31;27.90;;;5.85;;
36443;SDS011;24692;45.642;13.806;2022-08-19T10:44:00;30.45;;;9.05;;
36443;SDS011;24692;45.642;13.806;2022-08-19T10:46:28;31.67;;;7.53;;
36443;SDS011;24692;45.642;13.806;2022-08-19T10:48:57;32.97;;;7.35;;
36443;SDS011;24692;45.642;13.806;2022-08-19T10:51:26;21.73;;;6.72;;
36443;SDS011;24692;45.642;13.806;2022-08-19T10:54:11;28.38;;;7.22;;
36443;SDS011;24692;45.642;13.806;2022-08-19T10:56:36;18.38;;;7.00;;
36443;SDS011;24692;45.642;13.806;2022-08-19T10:59:21;20.67;;;6.22;;
36443;SDS011;24692;45.642;13.806;2022-08-19T11:01:52;19.20;;;5.38;;
36443;SDS011;24692;45.642;13.806;2022-08-19T11:04:19;17.00;;;5.23;;
36443;SDS011;24692;45.642;13.806;2022-08-19T11:06:47;13.30;;;4.50;;
36443;SDS011;24692;45.642;13.806;2022-08-19T11:09:14;11.30;;;4.60;;
36443;SDS011;24692;45.642;13.806;2022-08-19T11:11:41;14.82;;;4.65;;
36443;SDS011;24692;45.642;13.806;2022-08-19T11:14:09;11.60;;;4.32;;
36443;SDS011;24692;45.642;13.806;2022-08-19T11:16:36;14.88;;;3.97;;
36443;SDS011;24692;45.642;13.806;2022-08-19T11:19:03;14.50;;;4.22;;
36443;SDS011;24692;45.642;13.806;2022-08-19T11:21:31;10.60;;;3.88;;
36443;SDS011;24692;45.642;13.806;2022-08-19T11:24:00;12.85;;;4.05;;
36443;SDS011;24692;45.642;13.806;2022-08-19T11:26:28;12.68;;;3.70;;
36443;SDS011;24692;45.642;13.806;2022-08-19T11:28:56;10.18;;;3.13;;
36443;SDS011;24692;45.642;13.806;2022-08-19T11:31:23;11.43;;;3.75;;
36443;SDS011;24692;45.642;13.806;2022-08-19T11:33:59;12.98;;;3.85;;
36443;SDS011;24692;45.642;13.806;2022-08-19T11:36:28;11.02;;;3.88;;
36443;SDS011;24692;45.642;13.806;2022-08-19T11:38:54;9.93;;;3.53;;
36443;SDS011;24692;45.642;13.806;2022-08-19T11:41:21;11.52;;;3.90;;
36443;SDS011;24692;45.642;13.806;2022-08-19T11:43:48;11.95;;;4.10;;
36443;SDS011;24692;45.642;13.806;2022-08-19T11:46:15;9.20;;;3.80;;
36443;SDS011;24692;45.642;13.806;2022-08-19T11:48:42;6.57;;;2.92;;
36443;SDS011;24692;45.642;13.806;2022-08-19T11:51:09;9.48;;;3.47;;
36443;SDS011;24692;45.642;13.806;2022-08-19T11:53:43;9.77;;;3.17;;
36443;SDS011;24692;45.642;13.806;2022-08-19T11:56:10;15.00;;;3.90;;
36443;SDS011;24692;45.642;13.806;2022-08-19T11:58:37;7.75;;;3.40;;
36443;SDS011;24692;45.642;13.806;2022-08-19T12:01:07;11.25;;;3.45;;
36443;SDS011;24692;45.642;13.806;2022-08-19T12:03:33;11.10;;;3.30;;
36443;SDS011;24692;45.642;13.806;2022-08-19T12:06:03;12.02;;;3.60;;
36443;SDS011;24692;45.642;13.806;2022-08-19T12:08:40;12.85;;;2.97;;
36443;SDS011;24692;45.642;13.806;2022-08-19T12:11:07;10.05;;;3.13;;
36443;SDS011;24692;45.642;13.806;2022-08-19T12:13:33;15.15;;;3.58;;
36443;SDS011;24692;45.642;13.806;2022-08-19T12:16:00;11.70;;;3.60;;
36443;SDS011;24692;45.642;13.806;2022-08-19T12:18:31;8.95;;;3.05;;
36443;SDS011;24692;45.642;13.806;2022-08-19T12:20:57;13.60;;;3.30;;
36443;SDS011;24692;45.642;13.806;2022-08-19T12:23:25;9.68;;;3.08;;
36443;SDS011;24692;45.642;13.806;2022-08-19T12:25:51;9.38;;;2.83;;
36443;SDS011;24692;45.642;13.806;2022-08-19T12:28:20;8.00;;;2.78;;
36443;SDS011;24692;45.642;13.806;2022-08-19T12:30:48;8.57;;;2.95;;
36443;SDS011;24692;45.642;13.806;2022-08-19T12:33:16;10.60;;;2.83;;
36443;SDS011;24692;45.642;13.806;2022-08-19T12:35:49;12.10;;;3.60;;
36443;SDS011;24692;45.642;13.806;2022-08-19T12:38:15;9.40;;;3.00;;
36443;SDS011;24692;45.642;13.806;2022-08-19T12:40:41;9.95;;;3.30;;
36443;SDS011;24692;45.642;13.806;2022-08-19T12:43:11;9.95;;;3.10;;
36443;SDS011;24692;45.642;13.806;2022-08-19T12:45:37;9.38;;;3.13;;
36443;SDS011;24692;45.642;13.806;2022-08-19T12:48:03;9.68;;;3.00;;
36443;SDS011;24692;45.642;13.806;2022-08-19T12:50:29;10.48;;;2.78;;
36443;SDS011;24692;45.642;13.806;2022-08-19T12:52:55;9.77;;;2.65;;
36443;SDS011;24692;45.642;13.806;2022-08-19T12:55:22;9.88;;;3.17;;
36443;SDS011;24692;45.642;13.806;2022-08-19T12:57:47;8.57;;;2.40;;
36443;SDS011;24692;45.642;13.806;2022-08-19T13:00:18;7.43;;;2.78;;
36443;SDS011;24692;45.642;13.806;2022-08-19T13:02:46;6.18;;;2.40;;
36443;SDS011;24692;45.642;13.806;2022-08-19T13:05:17;8.10;;;2.75;;
36443;SDS011;24692;45.642;13.806;2022-08-19T13:07:46;5.50;;;2.30;;
36443;SDS011;24692;45.642;13.806;2022-08-19T13:10:13;9.10;;;2.47;;
36443;SDS011;24692;45.642;13.806;2022-08-19T13:12:41;11.20;;;2.70;;
36443;SDS011;24692;45.642;13.806;2022-08-19T13:15:08;6.88;;;2.70;;
36443;SDS011;24692;45.642;13.806;2022-08-19T13:17:34;6.22;;;2.30;;
36443;SDS011;24692;45.642;13.806;2022-08-19T13:20:01;8.57;;;2.50;;
36443;SDS011;24692;45.642;13.806;2022-08-19T13:22:27;7.15;;;2.45;;
36443;SDS011;24692;45.642;13.806;2022-08-19T13:24:53;6.53;;;2.40;;
36443;SDS011;24692;45.642;13.806;2022-08-19T13:27:19;7.70;;;2.60;;
36443;SDS011;24692;45.642;13.806;2022-08-19T13:29:44;9.35;;;2.78;;
36443;SDS011;24692;45.642;13.806;2022-08-19T13:32:29;6.65;;;2.42;;
36443;SDS011;24692;45.642;13.806;2022-08-19T13:35:14;6.10;;;2.70;;
36443;SDS011;24692;45.642;13.806;2022-08-19T13:37:40;7.05;;;2.33;;
36443;SDS011;24692;45.642;13.806;2022-08-19T13:42:38;14.30;;;3.05;;
36443;SDS011;24692;45.642;13.806;2022-08-19T13:45:05;9.93;;;2.78;;
36443;SDS011;24692;45.642;13.806;2022-08-19T13:47:32;6.53;;;2.80;;
36443;SDS011;24692;45.642;13.806;2022-08-19T13:50:07;8.10;;;2.72;;
36443;SDS011;24692;45.642;13.806;2022-08-19T13:52:35;8.00;;;2.70;;
36443;SDS011;24692;45.642;13.806;2022-08-19T13:55:01;7.30;;;2.60;;
36443;SDS011;24692;45.642;13.806;2022-08-19T13:57:28;7.70;;;2.70;;
36443;SDS011;24692;45.642;13.806;2022-08-19T13:59:53;9.10;;;2.80;;
36443;SDS011;24692;45.642;13.806;2022-08-19T14:02:19;9.10;;;2.80;;
36443;SDS011;24692;45.642;13.806;2022-08-19T14:04:45;11.88;;;2.75;;
36443;SDS011;24692;45.642;13.806;2022-08-19T14:07:11;10.68;;;2.95;;
36443;SDS011;24692;45.642;13.806;2022-08-19T14:09:36;7.32;;;2.35;;
36443;SDS011;24692;45.642;13.806;2022-08-19T14:12:02;4.95;;;2.40;;
36443;SDS011;24692;45.642;13.806;2022-08-19T14:14:29;4.43;;;2.20;;
36443;SDS011;24692;45.642;13.806;2022-08-19T14:16:54;6.38;;;2.25;;
36443;SDS011;24692;45.642;13.806;2022-08-19T14:19:20;8.40;;;2.28;;
36443;SDS011;24692;45.642;13.806;2022-08-19T14:21:46;8.07;;;2.40;;
36443;SDS011;24692;45.642;13.806;2022-08-19T14:24:12;5.22;;;2.10;;
36443;SDS011;24692;45.642;13.806;2022-08-19T14:26:38;6.53;;;2.25;;
36443;SDS011;24692;45.642;13.806;2022-08-19T14:29:04;9.43;;;2.20;;
36443;SDS011;24692;45.642;13.806;2022-08-19T14:31:29;9.90;;;3.22;;
36443;SDS011;24692;45.642;13.806;2022-08-19T14:33:55;9.18;;;2.35;;
36443;SDS011;24692;45.642;13.806;2022-08-19T14:36:20;8.50;;;1.90;;
36443;SDS011;24692;45.642;13.806;2022-08-19T14:38:47;5.10;;;1.83;;
36443;SDS011;24692;45.642;13.806;2022-08-19T14:41:18;5.43;;;1.90;;
36443;SDS011;24692;45.642;13.806;2022-08-19T14:43:46;5.00;;;1.85;;
36443;SDS011;24692;45.642;13.806;2022-08-19T14:46:16;6.78;;;1.77;;
36443;SDS011;24692;45.642;13.806;2022-08-19T14:48:45;5.50;;;1.77;;
36443;SDS011;24692;45.642;13.806;2022-08-19T14:51:11;8.02;;;2.17;;